PWSweather.com
Personal Weather Stations
Station Observations
NAPERVILLE
North Naperville, Naperville, IL 60563

North NapervilleNaperville, IL 60563

Lat: 41.79, Lon: -88.12

Elevation: 771

Station Type:

http://napervilleweather.com

Latest ConditionsUpdated 4:00:00 PM CST Saturday, Feb 23, 2019
Currently Today's Max Today's Min Today's Average
Temperature 36.4°F2.4°C 36.4°F2.4°C 33.4°F0.8°C 34.9°F1.6°C
Dew Point 35.4°F1.9°C 35.4°F1.9°C 27.8°F-2.3°C 30.6°F-0.8°C
Winds 1.0 mph ESE1.6 kmh ESE 2.0 mph -3.2 kmh - - 0.6 mph 1.0 kmh
Wind Gusts 2.0 mph3.2 kmh 6.0 mph9.7 kmh - -
Humidity 96% 96% 76% 85%
Pressure 29.75 in1007.5 mb 30.25 in1024.4 mb 29.75 in1007.5 mb -
Precipitation - 0.28 in7.1 mm - -
Hour Temp Dew Point Humidity Winds Wind Gusts Pressure Precip Precip Rate Daily Precip Total
04:00 PM 36.4°F2.4°C 35.4°F1.9°C 96% 1.0 mph ESE1.6 kmh ESE 2.0 mph3.2 kmh 29.75 in1007.5 mb 0.00 in0.0 mm 0.00 in0.0 mm 0.28 in7.1 mm
03:45 PM 36.3°F2.4°C 35.3°F1.8°C 96% 1.0 mph ENE1.6 kmh ENE 3.0 mph4.8 kmh 29.76 in1007.8 mb 0.00 in0.0 mm 0.00 in0.0 mm 0.28 in7.1 mm
03:30 PM 36.1°F2.3°C 35.1°F1.7°C 96% 1.0 mph E1.6 kmh E 2.0 mph3.2 kmh 29.77 in1008.1 mb 0.00 in0.0 mm 0.00 in0.0 mm 0.28 in7.1 mm
03:15 PM 35.9°F2.2°C 34.6°F1.4°C 95% 1.0 mph E1.6 kmh E 5.0 mph8.0 kmh 29.79 in1008.8 mb 0.01 in0.3 mm 0.00 in0.0 mm 0.28 in7.1 mm
03:00 PM 35.7°F2.1°C 34.4°F1.3°C 95% 1.0 mph E1.6 kmh E 3.0 mph4.8 kmh 29.81 in1009.5 mb 0.01 in0.3 mm 0.00 in0.0 mm 0.28 in7.1 mm
02:45 PM 35.5°F1.9°C 34.2°F1.2°C 95% 1.0 mph E1.6 kmh E 2.0 mph3.2 kmh 29.81 in1009.5 mb 0.01 in0.3 mm 0.00 in0.0 mm 0.28 in7.1 mm
02:30 PM 35.3°F1.8°C 34.0°F1.1°C 95% Calm Calm 1.0 mph1.6 kmh 29.81 in1009.5 mb 0.01 in0.3 mm 0.04 in1.0 mm 0.28 in7.1 mm
02:15 PM 35.1°F1.7°C 33.8°F1.0°C 95% Calm Calm 2.0 mph3.2 kmh 29.82 in1009.8 mb 0.00 in0.0 mm 0.00 in0.0 mm 0.27 in6.9 mm
02:00 PM 35.0°F1.7°C 33.7°F0.9°C 95% Calm Calm 1.0 mph1.6 kmh 29.83 in1010.2 mb 0.00 in0.0 mm 0.00 in0.0 mm 0.27 in6.9 mm
01:45 PM 34.9°F1.6°C 33.6°F0.9°C 95% Calm Calm 1.0 mph1.6 kmh 29.85 in1010.8 mb 0.02 in0.5 mm 0.00 in0.0 mm 0.27 in6.9 mm
01:30 PM 34.8°F1.6°C 33.5°F0.8°C 95% 1.0 mph ESE1.6 kmh ESE 1.0 mph1.6 kmh 29.86 in1011.2 mb 0.03 in0.8 mm 0.00 in0.0 mm 0.27 in6.9 mm
01:15 PM 34.5°F1.4°C 33.2°F0.7°C 95% 1.0 mph SSE1.6 kmh SSE 2.0 mph3.2 kmh 29.86 in1011.2 mb 0.03 in0.8 mm 0.00 in0.0 mm 0.27 in6.9 mm
01:00 PM 34.3°F1.3°C 33.0°F0.6°C 95% 1.0 mph SE1.6 kmh SE 2.0 mph3.2 kmh 29.87 in1011.5 mb 0.04 in1.0 mm 0.01 in0.3 mm 0.27 in6.9 mm
12:45 PM 33.8°F1.0°C 32.5°F0.3°C 95% 1.0 mph SSW1.6 kmh SSW 2.0 mph3.2 kmh 29.89 in1012.2 mb 0.03 in0.8 mm 0.00 in0.0 mm 0.25 in6.4 mm
12:30 PM 33.7°F0.9°C 32.2°F0.1°C 94% 1.0 mph S1.6 kmh S 2.0 mph3.2 kmh 29.92 in1013.2 mb 0.03 in0.8 mm 0.00 in0.0 mm 0.24 in6.1 mm
12:15 PM 33.7°F0.9°C 32.2°F0.1°C 94% 1.0 mph SSE1.6 kmh SSE 2.0 mph3.2 kmh 29.93 in1013.5 mb 0.07 in1.8 mm 0.00 in0.0 mm 0.24 in6.1 mm
12:00 PM 33.6°F0.9°C 32.1°F0.1°C 94% Calm Calm 1.0 mph1.6 kmh 29.94 in1013.9 mb 0.12 in3.0 mm 0.00 in0.0 mm 0.23 in5.8 mm
11:45 AM 33.4°F0.8°C 31.9°F-0.1°C 94% 1.0 mph S1.6 kmh S 3.0 mph4.8 kmh 29.95 in1014.2 mb 0.12 in3.0 mm 0.00 in0.0 mm 0.22 in5.6 mm
11:30 AM 33.6°F0.9°C 31.8°F-0.1°C 93% 1.0 mph S1.6 kmh S 2.0 mph3.2 kmh 29.96 in1014.6 mb 0.12 in3.0 mm 0.04 in1.0 mm 0.21 in5.3 mm
11:15 AM 33.7°F0.9°C 31.9°F-0.1°C 93% 1.0 mph NNE1.6 kmh NNE 1.0 mph1.6 kmh 30.00 in1015.9 mb 0.11 in2.8 mm 0.20 in5.1 mm 0.17 in4.3 mm
11:00 AM 34.0°F1.1°C 32.2°F0.1°C 93% 1.0 mph WNW1.6 kmh WNW 5.0 mph8.0 kmh 30.03 in1016.9 mb 0.06 in1.5 mm 0.00 in0.0 mm 0.11 in2.8 mm
10:45 AM 34.2°F1.2°C 32.1°F0.1°C 92% Calm Calm 1.0 mph1.6 kmh 30.00 in1015.9 mb 0.07 in1.8 mm 0.00 in0.0 mm 0.10 in2.5 mm
10:30 AM 34.2°F1.2°C 32.1°F0.1°C 92% Calm Calm 1.0 mph1.6 kmh 30.00 in1015.9 mb 0.08 in2.0 mm 0.12 in3.0 mm 0.09 in2.3 mm
10:15 AM 34.4°F1.3°C 32.0°F0.0°C 91% 1.0 mph W1.6 kmh W 3.0 mph4.8 kmh 30.02 in1016.6 mb 0.05 in1.3 mm 0.00 in0.0 mm 0.06 in1.5 mm
10:00 AM 35.1°F1.7°C 32.2°F0.1°C 89% Calm Calm 2.0 mph3.2 kmh 30.02 in1016.6 mb 0.05 in1.3 mm 0.03 in0.8 mm 0.05 in1.3 mm
09:45 AM 35.5°F1.9°C 32.3°F0.2°C 88% Calm Calm 1.0 mph1.6 kmh 30.03 in1016.9 mb 0.03 in0.8 mm 0.08 in2.0 mm 0.03 in0.8 mm
09:30 AM 35.8°F2.1°C 31.7°F-0.2°C 85% Calm Calm 1.0 mph1.6 kmh 30.03 in1016.9 mb 0.01 in0.3 mm 0.00 in0.0 mm 0.01 in0.3 mm
09:15 AM 35.9°F2.2°C 31.5°F-0.3°C 84% Calm Calm -- 30.02 in1016.6 mb 0.01 in0.3 mm 0.04 in1.0 mm 0.01 in0.3 mm
09:00 AM 35.9°F2.2°C 31.2°F-0.4°C 83% Calm Calm 1.0 mph1.6 kmh 30.03 in1016.9 mb 0.00 in0.0 mm 0.00 in0.0 mm 0.00 in0.0 mm
08:45 AM 35.9°F2.2°C 30.9°F-0.6°C 82% Calm Calm 2.0 mph3.2 kmh 30.04 in1017.3 mb 0.00 in0.0 mm 0.00 in0.0 mm 0.00 in0.0 mm
08:30 AM 35.9°F2.2°C 30.6°F-0.8°C 81% 1.0 mph E1.6 kmh E 3.0 mph4.8 kmh 30.03 in1016.9 mb 0.00 in0.0 mm 0.00 in0.0 mm 0.00 in0.0 mm
08:15 AM 35.9°F2.2°C 30.3°F-0.9°C 80% 1.0 mph E1.6 kmh E 3.0 mph4.8 kmh 30.03 in1016.9 mb 0.00 in0.0 mm 0.00 in0.0 mm 0.00 in0.0 mm
08:00 AM 35.7°F2.1°C 30.1°F-1.1°C 80% 1.0 mph E1.6 kmh E 3.0 mph4.8 kmh 30.03 in1016.9 mb 0.00 in0.0 mm 0.00 in0.0 mm 0.00 in0.0 mm
07:45 AM 35.5°F1.9°C 29.9°F-1.2°C 80% 1.0 mph E1.6 kmh E 3.0 mph4.8 kmh 30.05 in1017.6 mb 0.00 in0.0 mm 0.00 in0.0 mm 0.00 in0.0 mm
07:30 AM 35.2°F1.8°C 30.0°F-1.1°C 81% 1.0 mph E1.6 kmh E 4.0 mph6.4 kmh 30.05 in1017.6 mb 0.00 in0.0 mm 0.00 in0.0 mm 0.00 in0.0 mm
07:15 AM 35.2°F1.8°C 30.0°F-1.1°C 81% Calm Calm 2.0 mph3.2 kmh 30.07 in1018.3 mb 0.00 in0.0 mm 0.00 in0.0 mm 0.00 in0.0 mm
07:00 AM 35.2°F1.8°C 29.3°F-1.5°C 79% 1.0 mph E1.6 kmh E 6.0 mph9.7 kmh 30.06 in1017.9 mb 0.00 in0.0 mm 0.00 in0.0 mm 0.00 in0.0 mm
06:45 AM 35.1°F1.7°C 29.2°F-1.6°C 79% 2.0 mph E3.2 kmh E 5.0 mph8.0 kmh 30.05 in1017.6 mb 0.00 in0.0 mm 0.00 in0.0 mm 0.00 in0.0 mm
06:30 AM 34.9°F1.6°C 29.0°F-1.7°C 79% 1.0 mph E1.6 kmh E 3.0 mph4.8 kmh 30.07 in1018.3 mb 0.00 in0.0 mm 0.00 in0.0 mm 0.00 in0.0 mm
06:15 AM 34.7°F1.5°C 29.2°F-1.6°C 80% 1.0 mph SE1.6 kmh SE 2.0 mph3.2 kmh 30.07 in1018.3 mb 0.00 in0.0 mm 0.00 in0.0 mm 0.00 in0.0 mm
06:00 AM 34.7°F1.5°C 29.2°F-1.6°C 80% 1.0 mph SE1.6 kmh SE 2.0 mph3.2 kmh 30.08 in1018.6 mb 0.00 in0.0 mm 0.00 in0.0 mm 0.00 in0.0 mm
05:45 AM 34.7°F1.5°C 28.9°F-1.7°C 79% Calm Calm 1.0 mph1.6 kmh 30.08 in1018.6 mb 0.00 in0.0 mm 0.00 in0.0 mm 0.00 in0.0 mm
05:30 AM 34.8°F1.6°C 29.0°F-1.7°C 79% Calm Calm 1.0 mph1.6 kmh 30.11 in1019.6 mb 0.00 in0.0 mm 0.00 in0.0 mm 0.00 in0.0 mm
05:15 AM 34.8°F1.6°C 29.0°F-1.7°C 79% Calm Calm 1.0 mph1.6 kmh 30.12 in1020.0 mb 0.00 in0.0 mm 0.00 in0.0 mm 0.00 in0.0 mm
05:00 AM 34.9°F1.6°C 28.7°F-1.8°C 78% Calm Calm 1.0 mph1.6 kmh 30.11 in1019.6 mb 0.00 in0.0 mm 0.00 in0.0 mm 0.00 in0.0 mm
04:45 AM 35.0°F1.7°C 28.5°F-1.9°C 77% Calm Calm 2.0 mph3.2 kmh 30.13 in1020.3 mb 0.00 in0.0 mm 0.00 in0.0 mm 0.00 in0.0 mm
04:30 AM 35.0°F1.7°C 28.5°F-1.9°C 77% 1.0 mph ESE1.6 kmh ESE 5.0 mph8.0 kmh 30.15 in1021.0 mb 0.00 in0.0 mm 0.00 in0.0 mm 0.00 in0.0 mm
04:15 AM 34.9°F1.6°C 28.4°F-2.0°C 77% 1.0 mph ESE1.6 kmh ESE 3.0 mph4.8 kmh 30.13 in1020.3 mb 0.00 in0.0 mm 0.00 in0.0 mm 0.00 in0.0 mm
04:00 AM 34.8°F1.6°C 28.3°F-2.1°C 77% 1.0 mph E1.6 kmh E 5.0 mph8.0 kmh 30.13 in1020.3 mb 0.00 in0.0 mm 0.00 in0.0 mm 0.00 in0.0 mm
03:45 AM 34.8°F1.6°C 28.3°F-2.1°C 77% 1.0 mph E1.6 kmh E 3.0 mph4.8 kmh 30.14 in1020.7 mb 0.00 in0.0 mm 0.00 in0.0 mm 0.00 in0.0 mm
03:30 AM 34.7°F1.5°C 28.2°F-2.1°C 77% 1.0 mph SE1.6 kmh SE 3.0 mph4.8 kmh 30.15 in1021.0 mb 0.00 in0.0 mm 0.00 in0.0 mm 0.00 in0.0 mm
03:15 AM 34.6°F1.4°C 28.1°F-2.2°C 77% 1.0 mph SE1.6 kmh SE 1.0 mph1.6 kmh 30.16 in1021.3 mb 0.00 in0.0 mm 0.00 in0.0 mm 0.00 in0.0 mm
03:00 AM 34.5°F1.4°C 28.0°F-2.2°C 77% 1.0 mph E1.6 kmh E 2.0 mph3.2 kmh 30.18 in1022.0 mb 0.00 in0.0 mm 0.00 in0.0 mm 0.00 in0.0 mm
02:45 AM 34.4°F1.3°C 27.9°F-2.3°C 77% 1.0 mph E1.6 kmh E 2.0 mph3.2 kmh 30.18 in1022.0 mb 0.00 in0.0 mm 0.00 in0.0 mm 0.00 in0.0 mm
02:30 AM 34.3°F1.3°C 27.8°F-2.3°C 77% Calm Calm 2.0 mph3.2 kmh 30.19 in1022.4 mb 0.00 in0.0 mm 0.00 in0.0 mm 0.00 in0.0 mm
02:15 AM 34.3°F1.3°C 27.8°F-2.3°C 77% Calm Calm 2.0 mph3.2 kmh 30.20 in1022.7 mb 0.00 in0.0 mm 0.00 in0.0 mm 0.00 in0.0 mm
02:00 AM 34.3°F1.3°C 27.8°F-2.3°C 77% Calm Calm 3.0 mph4.8 kmh 30.21 in1023.0 mb 0.00 in0.0 mm 0.00 in0.0 mm 0.00 in0.0 mm
01:45 AM 34.3°F1.3°C 27.8°F-2.3°C 77% 1.0 mph SE1.6 kmh SE 2.0 mph3.2 kmh 30.21 in1023.0 mb 0.00 in0.0 mm 0.00 in0.0 mm 0.00 in0.0 mm
01:30 AM 34.3°F1.3°C 27.8°F-2.3°C 77% Calm Calm 2.0 mph3.2 kmh 30.22 in1023.4 mb 0.00 in0.0 mm 0.00 in0.0 mm 0.00 in0.0 mm
01:15 AM 34.3°F1.3°C 27.8°F-2.3°C 77% Calm Calm 2.0 mph3.2 kmh 30.23 in1023.7 mb 0.00 in0.0 mm 0.00 in0.0 mm 0.00 in0.0 mm
01:00 AM 34.4°F1.3°C 27.9°F-2.3°C 77% 1.0 mph SE1.6 kmh SE 1.0 mph1.6 kmh 30.24 in1024.0 mb 0.00 in0.0 mm 0.00 in0.0 mm 0.00 in0.0 mm
12:45 AM 34.6°F1.4°C 27.8°F-2.3°C 76% Calm Calm 1.0 mph1.6 kmh 30.24 in1024.0 mb 0.00 in0.0 mm 0.00 in0.0 mm 0.00 in0.0 mm
12:30 AM 34.8°F1.6°C 28.3°F-2.1°C 77% 1.0 mph E1.6 kmh E 2.0 mph3.2 kmh 30.24 in1024.0 mb 0.00 in0.0 mm 0.00 in0.0 mm 0.00 in0.0 mm
12:15 AM 35.0°F1.7°C 28.5°F-1.9°C 77% 1.0 mph SSW1.6 kmh SSW 2.0 mph3.2 kmh 30.25 in1024.4 mb 0.00 in0.0 mm 0.00 in0.0 mm 0.00 in0.0 mm
12:00 AM 34.9°F1.6°C 28.7°F-1.8°C 78% 1.0 mph E1.6 kmh E 5.0 mph8.0 kmh 30.25 in1024.4 mb 0.00 in0.0 mm 0.00 in0.0 mm 0.00 in0.0 mm